createdAt,value
2018-10-18T00:01:25.299Z,18.73
2018-10-18T00:03:54.508Z,23.17
2018-10-18T00:06:23.665Z,20.70
2018-10-18T00:08:52.756Z,19.37
2018-10-18T00:11:21.962Z,20.97
2018-10-18T00:13:51.233Z,18.57
2018-10-18T00:16:20.420Z,20.53
2018-10-18T00:18:49.651Z,23.10
2018-10-18T00:21:18.890Z,19.33
2018-10-18T00:23:48.087Z,18.43
2018-10-18T00:26:17.467Z,21.83
2018-10-18T00:28:46.727Z,19.37
2018-10-18T00:31:15.932Z,21.63
2018-10-18T00:33:45.033Z,20.20
2018-10-18T00:36:14.320Z,20.90
2018-10-18T00:38:43.409Z,20.30
2018-10-18T00:41:12.611Z,20.67
2018-10-18T00:43:41.762Z,21.13
2018-10-18T00:46:10.945Z,23.77
2018-10-18T00:48:40.136Z,20.63
2018-10-18T00:51:09.473Z,22.83
2018-10-18T00:53:38.669Z,22.27
2018-10-18T00:56:07.983Z,22.07
2018-10-18T00:58:37.107Z,20.47
2018-10-18T01:01:06.590Z,22.67
2018-10-18T01:03:35.717Z,21.60
2018-10-18T01:06:11.380Z,26.87
2018-10-18T01:08:40.596Z,25.67
2018-10-18T01:11:09.635Z,20.87
2018-10-18T01:13:38.808Z,23.73
2018-10-18T01:16:07.969Z,25.27
2018-10-18T01:18:37.249Z,21.50
2018-10-18T01:21:06.481Z,21.30
2018-10-18T01:23:35.781Z,22.63
2018-10-18T01:26:05.104Z,23.20
2018-10-18T01:28:34.350Z,24.80
2018-10-18T01:31:03.480Z,25.17
2018-10-18T01:33:32.628Z,24.40
2018-10-18T01:36:02.067Z,22.43
2018-10-18T01:38:31.141Z,25.40
2018-10-18T01:41:00.383Z,28.50
2018-10-18T01:43:29.678Z,26.63
2018-10-18T01:45:58.879Z,27.50
2018-10-18T01:48:28.124Z,24.83
2018-10-18T01:50:57.270Z,25.90
2018-10-18T01:53:26.401Z,26.50
2018-10-18T01:55:55.574Z,26.67
2018-10-18T01:58:24.811Z,25.73
2018-10-18T02:00:53.908Z,26.30
2018-10-18T02:03:23.008Z,29.40
2018-10-18T02:05:52.354Z,25.53
2018-10-18T02:08:21.498Z,25.37
2018-10-18T02:10:50.632Z,27.23
2018-10-18T02:13:19.729Z,28.60
2018-10-18T02:15:49.049Z,24.67
2018-10-18T02:18:18.345Z,28.23
2018-10-18T02:20:47.507Z,28.10
2018-10-18T02:23:16.618Z,28.17
2018-10-18T02:25:45.840Z,28.47
2018-10-18T02:28:15.029Z,28.50
2018-10-18T02:30:44.209Z,28.17
2018-10-18T02:33:13.437Z,28.93
2018-10-18T02:35:49.095Z,33.73
2018-10-18T02:38:18.223Z,33.47
2018-10-18T02:40:50.299Z,29.73
2018-10-18T02:43:19.646Z,29.67
2018-10-18T02:45:48.862Z,31.23
2018-10-18T02:48:18.211Z,28.33
2018-10-18T02:50:47.434Z,25.83
2018-10-18T02:53:16.576Z,25.80
2018-10-18T02:55:45.841Z,27.50
2018-10-18T02:58:15.158Z,28.80
2018-10-18T03:00:44.270Z,26.43
2018-10-18T03:03:13.509Z,26.07
2018-10-18T03:05:42.626Z,27.30
2018-10-18T03:08:11.781Z,27.43
2018-10-18T03:10:40.998Z,27.67
2018-10-18T03:13:10.225Z,25.53
2018-10-18T03:15:39.443Z,25.07
2018-10-18T03:18:08.787Z,20.67
2018-10-18T03:20:37.913Z,22.13
2018-10-18T03:23:07.587Z,20.50
2018-10-18T03:25:36.679Z,19.23
2018-10-18T03:28:05.847Z,20.67
2018-10-18T03:30:35.079Z,21.20
2018-10-18T03:33:04.488Z,20.80
2018-10-18T03:35:33.724Z,26.13
2018-10-18T03:38:02.879Z,23.73
2018-10-18T03:40:32.089Z,29.83
2018-10-18T03:43:01.518Z,30.63
2018-10-18T03:45:30.645Z,30.87
2018-10-18T03:47:59.895Z,31.20
2018-10-18T03:50:29.144Z,31.13
2018-10-18T03:52:58.420Z,33.13
2018-10-18T03:55:27.676Z,34.20
2018-10-18T03:57:56.907Z,31.10
2018-10-18T04:00:26.147Z,36.03
2018-10-18T04:02:55.307Z,32.77
2018-10-18T04:05:24.349Z,34.20
2018-10-18T04:07:53.444Z,35.27
2018-10-18T04:10:22.653Z,36.40
2018-10-18T04:12:52.015Z,35.00
2018-10-18T04:15:21.412Z,34.87
2018-10-18T04:17:50.740Z,34.10
2018-10-18T04:20:19.850Z,31.30
2018-10-18T04:22:49.012Z,38.43
2018-10-18T04:25:18.391Z,35.20
2018-10-18T04:27:47.696Z,34.30
2018-10-18T04:30:17.016Z,38.47
2018-10-18T04:32:46.062Z,35.83
2018-10-18T04:35:15.304Z,36.87
2018-10-18T04:37:45.803Z,33.03
2018-10-18T04:40:15.078Z,33.10
2018-10-18T04:42:44.345Z,37.60
2018-10-18T04:45:13.504Z,34.83
2018-10-18T04:47:42.778Z,36.20
2018-10-18T04:50:11.827Z,34.07
2018-10-18T04:52:41.069Z,30.90
2018-10-18T04:55:10.423Z,35.13
2018-10-18T04:57:39.664Z,31.23
2018-10-18T05:00:09.113Z,35.83
2018-10-18T05:02:38.786Z,33.87
2018-10-18T05:05:18.871Z,34.13
2018-10-18T05:07:48.054Z,33.37
2018-10-18T05:10:17.436Z,38.00
2018-10-18T05:12:46.660Z,33.77
2018-10-18T05:15:15.808Z,35.40
2018-10-18T05:17:44.895Z,34.97
2018-10-18T05:20:14.233Z,36.67
2018-10-18T05:22:43.332Z,34.97
2018-10-18T05:25:12.610Z,34.90
2018-10-18T05:27:41.730Z,38.07
2018-10-18T05:30:10.999Z,35.73
2018-10-18T05:32:40.179Z,36.47
2018-10-18T05:35:09.394Z,32.53
2018-10-18T05:37:38.689Z,35.73
2018-10-18T05:40:08.107Z,35.73
2018-10-18T05:42:37.350Z,35.63
2018-10-18T05:45:07.388Z,36.33
2018-10-18T05:47:36.582Z,40.93
2018-10-18T05:50:06.645Z,38.33
2018-10-18T05:52:35.976Z,36.33
2018-10-18T05:55:06.143Z,36.57
2018-10-18T05:57:35.442Z,38.47
2018-10-18T06:00:05.611Z,36.93
2018-10-18T06:02:34.872Z,34.83
2018-10-18T06:05:04.264Z,35.30
2018-10-18T06:07:33.616Z,35.57
2018-10-18T06:10:02.806Z,35.53
2018-10-18T06:12:32.052Z,35.50
2018-10-18T06:15:01.361Z,37.50
2018-10-18T06:17:30.650Z,34.20
2018-10-18T06:19:59.928Z,36.33
2018-10-18T06:22:29.283Z,36.70
2018-10-18T06:24:58.624Z,38.30
2018-10-18T06:27:27.922Z,37.90
2018-10-18T06:29:57.089Z,40.83
2018-10-18T06:32:26.211Z,37.97
2018-10-18T06:34:55.326Z,35.40
2018-10-18T06:37:24.683Z,36.40
2018-10-18T06:39:53.844Z,37.37
2018-10-18T06:42:23.000Z,39.77
2018-10-18T06:44:52.253Z,37.63
2018-10-18T06:47:21.536Z,37.43
2018-10-18T06:49:50.785Z,32.80
2018-10-18T06:52:20.034Z,36.47
2018-10-18T06:54:49.120Z,36.10
2018-10-18T06:57:18.327Z,35.73
2018-10-18T06:59:47.605Z,38.80
2018-10-18T07:02:16.840Z,38.40
2018-10-18T07:04:46.029Z,34.17
2018-10-18T07:07:15.316Z,36.50
2018-10-18T07:09:44.432Z,35.37
2018-10-18T07:12:13.629Z,36.10
2018-10-18T07:14:42.897Z,35.30
2018-10-18T07:17:12.145Z,37.37
2018-10-18T07:19:41.364Z,38.53
2018-10-18T07:22:10.592Z,34.73
2018-10-18T07:24:39.909Z,39.10
2018-10-18T07:27:09.352Z,38.83
2018-10-18T07:29:38.437Z,38.17
2018-10-18T07:32:07.787Z,34.93
2018-10-18T07:34:37.096Z,35.87
2018-10-18T07:37:06.573Z,37.40
2018-10-18T07:39:35.779Z,38.93
2018-10-18T07:42:05.033Z,35.93
2018-10-18T07:44:34.367Z,37.50
2018-10-18T07:47:03.773Z,35.80
2018-10-18T07:49:33.110Z,35.60
2018-10-18T07:52:02.403Z,39.30
2018-10-18T07:54:31.654Z,40.07
2018-10-18T07:57:00.771Z,36.10
2018-10-18T07:59:29.918Z,39.10
2018-10-18T08:01:59.048Z,38.60
2018-10-18T08:04:34.613Z,37.60
2018-10-18T08:07:03.919Z,40.17
2018-10-18T08:09:33.288Z,37.93
2018-10-18T08:12:02.425Z,35.33
2018-10-18T08:14:31.547Z,38.60
2018-10-18T08:17:00.892Z,38.40
2018-10-18T08:19:30.323Z,39.53
2018-10-18T08:21:59.489Z,36.80
2018-10-18T08:24:28.786Z,39.37
2018-10-18T08:26:57.989Z,37.53
2018-10-18T08:29:27.228Z,35.20
2018-10-18T08:31:56.383Z,36.13
2018-10-18T08:34:25.595Z,38.70
2018-10-18T08:36:54.848Z,33.97
2018-10-18T08:39:24.075Z,36.33
2018-10-18T08:41:53.354Z,34.33
2018-10-18T08:44:22.698Z,35.97
2018-10-18T08:46:51.896Z,38.33
2018-10-18T08:49:20.975Z,39.23
2018-10-18T08:51:50.276Z,40.30
2018-10-18T08:54:19.475Z,35.17
2018-10-18T08:56:48.716Z,39.73
2018-10-18T08:59:17.981Z,40.97
2018-10-18T09:01:47.013Z,42.27
2018-10-18T09:04:16.418Z,39.27
2018-10-18T09:06:45.613Z,42.30
2018-10-18T09:09:14.919Z,42.53
2018-10-18T09:11:44.221Z,43.20
2018-10-18T09:14:13.450Z,44.07
2018-10-18T09:16:42.762Z,43.70
2018-10-18T09:19:12.242Z,37.87
2018-10-18T09:21:41.334Z,42.07
2018-10-18T09:24:10.549Z,41.10
2018-10-18T09:26:39.679Z,41.37
2018-10-18T09:29:08.975Z,42.33
2018-10-18T09:31:38.185Z,39.90
2018-10-18T09:34:07.370Z,42.93
2018-10-18T09:36:42.905Z,40.23
2018-10-18T09:39:12.128Z,43.27
2018-10-18T09:41:41.450Z,40.30
2018-10-18T09:44:10.812Z,41.83
2018-10-18T09:46:39.982Z,39.20
2018-10-18T09:49:09.124Z,38.33
2018-10-18T09:51:38.487Z,44.37
2018-10-18T09:54:07.791Z,42.30
2018-10-18T09:56:36.884Z,43.23
2018-10-18T09:59:06.211Z,44.63
2018-10-18T10:01:40.597Z,42.20
2018-10-18T10:04:09.834Z,40.73
2018-10-18T10:06:39.008Z,44.50
2018-10-18T10:09:09.276Z,48.30
2018-10-18T10:11:38.580Z,41.63
2018-10-18T10:14:07.856Z,39.00
2018-10-18T10:16:37.046Z,44.80
2018-10-18T10:19:06.604Z,42.97
2018-10-18T10:21:35.849Z,40.93
2018-10-18T10:24:05.145Z,38.73
2018-10-18T10:26:34.294Z,47.13
2018-10-18T10:29:03.471Z,43.43
2018-10-18T10:31:32.676Z,44.87
2018-10-18T10:34:01.772Z,42.90
2018-10-18T10:36:31.093Z,48.50
2018-10-18T10:39:00.373Z,45.13
2018-10-18T10:41:29.776Z,47.93
2018-10-18T10:43:59.081Z,43.03
2018-10-18T10:46:28.325Z,41.23
2018-10-18T10:48:57.528Z,39.83
2018-10-18T10:51:26.830Z,43.10
2018-10-18T10:53:56.033Z,42.83
2018-10-18T10:56:25.165Z,44.90
2018-10-18T10:58:54.406Z,45.07
2018-10-18T11:01:24.828Z,51.93
2018-10-18T11:03:56.102Z,48.60
2018-10-18T11:06:25.554Z,47.57
2018-10-18T11:08:54.880Z,49.37
2018-10-18T11:11:24.679Z,49.93
2018-10-18T11:13:54.043Z,46.10
2018-10-18T11:16:23.278Z,49.17
2018-10-18T11:18:52.465Z,48.10
2018-10-18T11:21:21.884Z,38.53
2018-10-18T11:23:51.173Z,47.57
2018-10-18T11:26:20.574Z,49.27
2018-10-18T11:28:49.869Z,45.97
2018-10-18T11:31:25.378Z,42.50
2018-10-18T11:33:54.653Z,43.50
2018-10-18T11:36:24.080Z,48.57
2018-10-18T11:38:53.424Z,47.77
2018-10-18T11:41:22.744Z,50.03
2018-10-18T11:43:52.056Z,48.70
2018-10-18T11:46:21.451Z,47.70
2018-10-18T11:48:50.825Z,46.03
2018-10-18T11:51:20.069Z,47.93
2018-10-18T11:53:49.541Z,49.30
2018-10-18T11:56:18.811Z,52.30
2018-10-18T11:58:48.060Z,48.70
2018-10-18T12:01:17.656Z,47.37
2018-10-18T12:03:46.916Z,50.53
2018-10-18T12:06:16.341Z,51.83
2018-10-18T12:08:48.694Z,49.87
2018-10-18T12:11:18.141Z,47.90
2018-10-18T12:13:47.422Z,43.70
2018-10-18T12:16:16.800Z,48.93
2018-10-18T12:18:46.024Z,49.07
2018-10-18T12:21:15.524Z,47.87
2018-10-18T12:23:44.741Z,47.43
2018-10-18T12:26:13.966Z,49.20
2018-10-18T12:28:43.224Z,52.70
2018-10-18T12:31:12.612Z,52.23
2018-10-18T12:33:41.949Z,50.10
2018-10-18T12:36:11.264Z,52.27
2018-10-18T12:38:40.529Z,51.30
2018-10-18T12:41:10.056Z,50.80
2018-10-18T12:43:39.244Z,60.17
2018-10-18T12:46:08.697Z,51.27
2018-10-18T12:48:37.909Z,57.00
2018-10-18T12:51:07.301Z,50.67
2018-10-18T12:53:36.724Z,50.27
2018-10-18T12:56:06.554Z,51.43
2018-10-18T12:58:35.792Z,50.43
2018-10-18T13:01:05.204Z,46.47
2018-10-18T13:03:34.478Z,50.40
2018-10-18T13:06:03.793Z,48.30
2018-10-18T13:08:33.200Z,50.57
2018-10-18T13:11:02.421Z,48.20
2018-10-18T13:13:32.003Z,48.30
2018-10-18T13:16:01.286Z,46.93
2018-10-18T13:18:30.734Z,49.60
2018-10-18T13:21:00.147Z,51.47
2018-10-18T13:23:29.352Z,47.43
2018-10-18T13:25:58.684Z,47.50
2018-10-18T13:28:28.000Z,45.40
2018-10-18T13:30:57.236Z,44.73
2018-10-18T13:33:26.559Z,47.43
2018-10-18T13:35:55.941Z,51.90
2018-10-18T13:38:25.357Z,48.30
2018-10-18T13:40:55.319Z,50.03
2018-10-18T13:43:24.598Z,49.73
2018-10-18T13:45:53.918Z,46.27
2018-10-18T13:48:23.189Z,52.80
2018-10-18T13:50:52.363Z,48.10
2018-10-18T13:53:21.673Z,48.93
2018-10-18T13:55:50.858Z,48.37
2018-10-18T13:58:20.308Z,49.07
2018-10-18T14:00:49.610Z,53.37
2018-10-18T14:03:19.107Z,49.47
2018-10-18T14:05:48.508Z,51.67
2018-10-18T14:08:18.001Z,53.30
2018-10-18T14:10:47.305Z,51.20
2018-10-18T14:13:16.698Z,53.30
2018-10-18T14:15:45.968Z,54.03
2018-10-18T14:18:15.417Z,53.80
2018-10-18T14:20:45.340Z,57.97
2018-10-18T14:23:14.579Z,64.43
2018-10-18T14:25:43.863Z,58.93
2018-10-18T14:28:13.106Z,55.87
2018-10-18T14:30:42.533Z,57.97
2018-10-18T14:33:11.806Z,58.90
2018-10-18T14:35:41.117Z,60.33
2018-10-18T14:38:10.440Z,58.33
2018-10-18T14:40:39.773Z,59.80
2018-10-18T14:43:09.108Z,55.20
2018-10-18T14:45:38.465Z,63.73
2018-10-18T14:48:07.891Z,70.00
2018-10-18T14:50:37.496Z,66.67
2018-10-18T14:53:06.875Z,63.03
2018-10-18T14:55:36.258Z,65.87
2018-10-18T14:58:05.768Z,62.93
2018-10-18T15:00:35.251Z,71.00
2018-10-18T15:03:04.668Z,66.53
2018-10-18T15:05:34.016Z,65.10
2018-10-18T15:08:03.336Z,65.70
2018-10-18T15:10:32.754Z,62.53
2018-10-18T15:13:02.131Z,65.53
2018-10-18T15:15:31.374Z,64.90
2018-10-18T15:18:07.223Z,60.37
2018-10-18T15:20:36.579Z,67.53
2018-10-18T15:23:05.897Z,66.13
2018-10-18T15:25:35.439Z,65.47
2018-10-18T15:28:04.597Z,67.47
2018-10-18T15:30:34.015Z,73.20
2018-10-18T15:33:03.463Z,69.07
2018-10-18T15:35:32.905Z,63.40
2018-10-18T15:38:02.503Z,70.67
2018-10-18T15:40:31.712Z,69.23
2018-10-18T15:43:01.282Z,68.37
2018-10-18T15:45:30.570Z,68.77
2018-10-18T15:47:59.966Z,69.53
2018-10-18T15:50:29.498Z,62.67
2018-10-18T15:52:58.848Z,65.90
2018-10-18T15:55:28.160Z,63.47
2018-10-18T15:57:57.548Z,64.47
2018-10-18T16:00:27.024Z,60.37
2018-10-18T16:02:56.493Z,65.87
2018-10-18T16:05:25.828Z,58.93
2018-10-18T16:07:55.259Z,61.80
2018-10-18T16:10:24.548Z,62.83
2018-10-18T16:12:53.957Z,66.17
2018-10-18T16:15:23.233Z,65.90
2018-10-18T16:17:52.481Z,61.77
2018-10-18T16:20:21.800Z,58.00
2018-10-18T16:22:51.009Z,58.77
2018-10-18T16:25:20.224Z,61.50
2018-10-18T16:27:49.543Z,59.53
2018-10-18T16:30:18.677Z,59.37
2018-10-18T16:32:47.940Z,57.67
2018-10-18T16:35:17.240Z,57.50
2018-10-18T16:37:46.669Z,57.80
2018-10-18T16:40:16.132Z,56.07
2018-10-18T16:42:45.583Z,59.40
2018-10-18T16:45:15.083Z,59.37
2018-10-18T16:47:44.421Z,58.80
2018-10-18T16:50:13.852Z,53.40
2018-10-18T16:52:43.120Z,58.47
2018-10-18T16:55:12.407Z,57.37
2018-10-18T16:57:47.908Z,53.50
2018-10-18T17:00:17.215Z,51.87
2018-10-18T17:02:46.654Z,55.27
2018-10-18T17:05:15.941Z,52.90
2018-10-18T17:07:45.207Z,53.20
2018-10-18T17:10:14.561Z,52.73
2018-10-18T17:12:43.811Z,51.13
2018-10-18T17:15:13.228Z,51.83
2018-10-18T17:17:42.545Z,50.90
2018-10-18T17:20:11.914Z,50.03
2018-10-18T17:22:41.332Z,48.87
2018-10-18T17:25:10.760Z,50.43
2018-10-18T17:27:40.180Z,50.80
2018-10-18T17:30:09.508Z,47.37
2018-10-18T17:32:38.939Z,47.93
2018-10-18T17:35:08.255Z,50.63
2018-10-18T17:37:37.514Z,50.30
2018-10-18T17:40:07.784Z,48.70
2018-10-18T17:42:36.918Z,47.70
2018-10-18T17:45:07.783Z,47.03
2018-10-18T17:47:37.152Z,52.97
2018-10-18T17:50:13.167Z,50.00
2018-10-18T17:52:42.548Z,48.40
2018-10-18T17:55:11.894Z,46.20
2018-10-18T17:57:41.280Z,45.50
2018-10-18T18:00:12.404Z,47.30
2018-10-18T18:02:42.094Z,45.90
2018-10-18T18:05:12.702Z,49.43
2018-10-18T18:07:41.990Z,46.47
2018-10-18T18:10:15.454Z,44.70
2018-10-18T18:12:44.852Z,41.17
2018-10-18T18:15:14.143Z,41.33
2018-10-18T18:17:43.408Z,39.03
2018-10-18T18:20:13.177Z,40.30
2018-10-18T18:22:42.520Z,45.73
2018-10-18T18:25:12.611Z,43.63
2018-10-18T18:27:41.812Z,40.07
2018-10-18T18:30:13.125Z,39.30
2018-10-18T18:32:42.809Z,38.13
2018-10-18T18:35:12.064Z,38.60
2018-10-18T18:37:41.341Z,41.53
2018-10-18T18:40:11.191Z,38.83
2018-10-18T18:42:41.140Z,40.83
2018-10-18T18:45:15.839Z,40.63
2018-10-18T18:47:45.054Z,42.30
2018-10-18T18:50:14.311Z,37.67
2018-10-18T18:52:43.631Z,38.17
2018-10-18T18:55:13.079Z,38.80
2018-10-18T18:57:42.352Z,40.20
2018-10-18T19:00:11.808Z,40.17
2018-10-18T19:02:40.995Z,38.07
2018-10-18T19:05:10.304Z,36.37
2018-10-18T19:07:39.586Z,38.13
2018-10-18T19:10:09.440Z,35.13
2018-10-18T19:12:38.783Z,37.20
2018-10-18T19:15:09.424Z,36.50
2018-10-18T19:17:39.751Z,37.33
2018-10-18T19:20:09.076Z,38.37
2018-10-18T19:22:38.356Z,36.20
2018-10-18T19:25:08.308Z,34.60
2018-10-18T19:27:38.139Z,34.83
2018-10-18T19:30:08.956Z,37.90
2018-10-18T19:32:38.257Z,38.47
2018-10-18T19:35:07.627Z,32.43
2018-10-18T19:37:36.950Z,39.83
2018-10-18T19:40:07.725Z,36.53
2018-10-18T19:42:37.021Z,36.77
2018-10-18T19:45:07.460Z,35.47
2018-10-18T19:47:36.711Z,34.90
2018-10-18T19:50:06.689Z,34.80
2018-10-18T19:52:36.339Z,35.13
2018-10-18T19:55:06.268Z,36.67
2018-10-18T19:57:35.598Z,35.10
2018-10-18T20:00:05.114Z,33.03
2018-10-18T20:02:34.419Z,32.60
2018-10-18T20:05:04.071Z,32.90
2018-10-18T20:07:33.507Z,32.73
2018-10-18T20:10:02.899Z,28.93
2018-10-18T20:12:32.224Z,30.23
2018-10-18T20:15:01.649Z,30.37
2018-10-18T20:17:30.883Z,28.33
2018-10-18T20:20:00.148Z,28.20
2018-10-18T20:22:29.461Z,26.23
2018-10-18T20:24:58.950Z,28.73
2018-10-18T20:27:28.124Z,27.00
2018-10-18T20:30:04.212Z,25.90
2018-10-18T20:32:33.667Z,25.77
2018-10-18T20:35:03.813Z,27.23
2018-10-18T20:37:33.143Z,29.23
2018-10-18T20:40:02.451Z,27.40
2018-10-18T20:42:31.746Z,28.27
2018-10-18T20:45:01.089Z,27.43
2018-10-18T20:47:30.769Z,26.17
2018-10-18T20:49:59.949Z,24.20
2018-10-18T20:52:29.260Z,26.47
2018-10-18T20:54:58.609Z,27.07
2018-10-18T20:57:27.805Z,24.03
2018-10-18T20:59:57.112Z,25.43
2018-10-18T21:02:26.274Z,26.10
2018-10-18T21:04:55.616Z,24.90
2018-10-18T21:07:24.947Z,25.37
2018-10-18T21:09:54.154Z,28.03
2018-10-18T21:12:23.481Z,24.83
2018-10-18T21:14:52.724Z,25.17
2018-10-18T21:17:22.028Z,23.27
2018-10-18T21:19:51.266Z,26.20
2018-10-18T21:22:20.620Z,25.37
2018-10-18T21:24:49.793Z,26.70
2018-10-18T21:27:19.120Z,23.20
2018-10-18T21:29:48.463Z,25.57
2018-10-18T21:32:17.718Z,24.60
2018-10-18T21:34:47.115Z,21.73
2018-10-18T21:37:22.835Z,29.70
2018-10-18T21:39:52.067Z,23.90
2018-10-18T21:42:21.397Z,25.83
2018-10-18T21:44:51.138Z,26.20
2018-10-18T21:47:20.519Z,24.47
2018-10-18T21:49:49.643Z,24.27
2018-10-18T21:52:18.928Z,24.93
2018-10-18T21:54:48.296Z,23.93
2018-10-18T21:57:17.678Z,22.23
2018-10-18T21:59:47.116Z,23.73
2018-10-18T22:02:16.538Z,23.57
2018-10-18T22:04:45.893Z,23.67
2018-10-18T22:07:15.237Z,27.80
2018-10-18T22:09:44.534Z,22.53
2018-10-18T22:12:13.829Z,24.37
2018-10-18T22:14:43.177Z,25.50
2018-10-18T22:17:12.451Z,24.43
2018-10-18T22:19:41.610Z,24.57
2018-10-18T22:22:10.941Z,25.37
2018-10-18T22:24:40.207Z,23.17
2018-10-18T22:27:09.646Z,24.33
2018-10-18T22:29:38.784Z,24.67
2018-10-18T22:32:08.033Z,21.90
2018-10-18T22:34:37.197Z,21.47
2018-10-18T22:37:06.917Z,24.90
2018-10-18T22:39:36.222Z,23.23
2018-10-18T22:42:05.736Z,22.60
2018-10-18T22:44:35.005Z,22.73
2018-10-18T22:47:04.391Z,23.23
2018-10-18T22:49:33.604Z,20.90
2018-10-18T22:52:02.953Z,20.83
2018-10-18T22:54:32.219Z,22.50
2018-10-18T22:57:01.761Z,21.87
2018-10-18T22:59:37.257Z,28.33
2018-10-18T23:02:06.644Z,26.27
2018-10-18T23:04:35.952Z,24.60
2018-10-18T23:07:05.302Z,23.57
2018-10-18T23:09:34.605Z,24.73
2018-10-18T23:12:03.908Z,26.50
2018-10-18T23:14:33.214Z,21.10
2018-10-18T23:17:02.506Z,22.90
2018-10-18T23:19:31.914Z,24.43
2018-10-18T23:22:01.261Z,23.67
2018-10-18T23:24:30.411Z,23.63
2018-10-18T23:26:59.733Z,24.03
2018-10-18T23:29:28.910Z,25.03
2018-10-18T23:31:58.197Z,22.83
2018-10-18T23:34:27.619Z,21.90
2018-10-18T23:36:56.756Z,22.93
2018-10-18T23:39:26.020Z,23.13
2018-10-18T23:41:55.249Z,24.43
2018-10-18T23:44:24.413Z,22.93
2018-10-18T23:46:53.763Z,24.27
2018-10-18T23:49:22.933Z,25.17
2018-10-18T23:51:52.132Z,25.33
2018-10-18T23:54:21.484Z,23.17
2018-10-18T23:56:50.880Z,24.37
2018-10-18T23:59:20.189Z,24.00
